sensor_id;sensor_type;location;lat;lon;timestamp;pressure;altitude;pressure_sealevel;temperature
12753;BMP180;6440;44.616;2.032;2022-09-03T00:00:22;98648;;;19.80
12753;BMP180;6440;44.616;2.032;2022-09-03T00:02:41;98644;;;19.80
12753;BMP180;6440;44.616;2.032;2022-09-03T00:05:30;98649;;;19.80
12753;BMP180;6440;44.616;2.032;2022-09-03T00:08:00;98651;;;19.80
12753;BMP180;6440;44.616;2.032;2022-09-03T00:10:28;98656;;;19.80
12753;BMP180;6440;44.616;2.032;2022-09-03T00:12:56;98660;;;19.80
12753;BMP180;6440;44.616;2.032;2022-09-03T00:15:23;98666;;;19.80
12753;BMP180;6440;44.616;2.032;2022-09-03T00:17:54;98659;;;19.90
12753;BMP180;6440;44.616;2.032;2022-09-03T00:20:23;98658;;;19.90
12753;BMP180;6440;44.616;2.032;2022-09-03T00:22:52;98666;;;19.80
12753;BMP180;6440;44.616;2.032;2022-09-03T00:25:33;98667;;;19.80
12753;BMP180;6440;44.616;2.032;2022-09-03T00:27:57;98672;;;19.80
12753;BMP180;6440;44.616;2.032;2022-09-03T00:30:25;98669;;;19.70
12753;BMP180;6440;44.616;2.032;2022-09-03T00:32:58;98681;;;19.70
12753;BMP180;6440;44.616;2.032;2022-09-03T00:35:27;98672;;;19.80
12753;BMP180;6440;44.616;2.032;2022-09-03T00:37:53;98669;;;19.90
12753;BMP180;6440;44.616;2.032;2022-09-03T00:43:39;98665;;;19.90
12753;BMP180;6440;44.616;2.032;2022-09-03T00:46:25;98662;;;19.80
12753;BMP180;6440;44.616;2.032;2022-09-03T00:49:16;98664;;;19.70
12753;BMP180;6440;44.616;2.032;2022-09-03T00:52:18;98494;;;19.70
12753;BMP180;6440;44.616;2.032;2022-09-03T00:54:38;98651;;;19.60
12753;BMP180;6440;44.616;2.032;2022-09-03T00:57:16;98656;;;19.70
12753;BMP180;6440;44.616;2.032;2022-09-03T00:59:50;98656;;;19.60
12753;BMP180;6440;44.616;2.032;2022-09-03T01:03:08;98656;;;19.50
12753;BMP180;6440;44.616;2.032;2022-09-03T01:05:33;98651;;;19.40
12753;BMP180;6440;44.616;2.032;2022-09-03T01:08:13;98657;;;19.50
12753;BMP180;6440;44.616;2.032;2022-09-03T01:10:45;98662;;;19.50
12753;BMP180;6440;44.616;2.032;2022-09-03T01:13:17;98661;;;19.60
12753;BMP180;6440;44.616;2.032;2022-09-03T01:16:05;98664;;;19.60
12753;BMP180;6440;44.616;2.032;2022-09-03T01:18:54;98672;;;19.50
12753;BMP180;6440;44.616;2.032;2022-09-03T01:21:47;98672;;;19.50
12753;BMP180;6440;44.616;2.032;2022-09-03T01:24:38;98687;;;19.60
12753;BMP180;6440;44.616;2.032;2022-09-03T01:30:03;98681;;;19.60
12753;BMP180;6440;44.616;2.032;2022-09-03T01:32:53;98688;;;19.60
12753;BMP180;6440;44.616;2.032;2022-09-03T01:38:31;98685;;;19.50
12753;BMP180;6440;44.616;2.032;2022-09-03T01:42:00;98687;;;19.50
12753;BMP180;6440;44.616;2.032;2022-09-03T01:44:49;98688;;;19.40
12753;BMP180;6440;44.616;2.032;2022-09-03T01:47:32;98689;;;19.30
12753;BMP180;6440;44.616;2.032;2022-09-03T01:50:03;98686;;;19.20
12753;BMP180;6440;44.616;2.032;2022-09-03T01:52:58;98689;;;19.20
12753;BMP180;6440;44.616;2.032;2022-09-03T01:55:51;98687;;;19.20
12753;BMP180;6440;44.616;2.032;2022-09-03T01:58:22;98686;;;19.20
12753;BMP180;6440;44.616;2.032;2022-09-03T02:00:51;98688;;;19.20
12753;BMP180;6440;44.616;2.032;2022-09-03T02:03:17;98686;;;19.10
12753;BMP180;6440;44.616;2.032;2022-09-03T02:05:46;98685;;;19.10
12753;BMP180;6440;44.616;2.032;2022-09-03T02:08:14;98684;;;19.10
12753;BMP180;6440;44.616;2.032;2022-09-03T02:10:46;98686;;;19.10
12753;BMP180;6440;44.616;2.032;2022-09-03T02:13:21;98686;;;19.20
12753;BMP180;6440;44.616;2.032;2022-09-03T02:15:49;98690;;;19.10
12753;BMP180;6440;44.616;2.032;2022-09-03T02:18:23;98681;;;19.10
12753;BMP180;6440;44.616;2.032;2022-09-03T02:20:51;98679;;;19.10
12753;BMP180;6440;44.616;2.032;2022-09-03T02:23:18;98695;;;19.10
12753;BMP180;6440;44.616;2.032;2022-09-03T02:25:49;98701;;;19.00
12753;BMP180;6440;44.616;2.032;2022-09-03T02:28:16;98706;;;19.00
12753;BMP180;6440;44.616;2.032;2022-09-03T02:30:44;98695;;;19.00
12753;BMP180;6440;44.616;2.032;2022-09-03T02:33:12;98692;;;19.00
12753;BMP180;6440;44.616;2.032;2022-09-03T02:35:40;98688;;;18.90
12753;BMP180;6440;44.616;2.032;2022-09-03T02:38:13;98688;;;18.90
12753;BMP180;6440;44.616;2.032;2022-09-03T02:40:40;98690;;;18.90
12753;BMP180;6440;44.616;2.032;2022-09-03T02:43:10;98690;;;18.80
12753;BMP180;6440;44.616;2.032;2022-09-03T02:45:36;98684;;;18.60
12753;BMP180;6440;44.616;2.032;2022-09-03T02:48:05;98689;;;18.70
12753;BMP180;6440;44.616;2.032;2022-09-03T02:50:38;98691;;;18.70
12753;BMP180;6440;44.616;2.032;2022-09-03T02:53:01;98698;;;18.70
12753;BMP180;6440;44.616;2.032;2022-09-03T02:55:30;98697;;;18.70
12753;BMP180;6440;44.616;2.032;2022-09-03T02:57:59;98696;;;18.70
12753;BMP180;6440;44.616;2.032;2022-09-03T03:00:28;98690;;;18.70
12753;BMP180;6440;44.616;2.032;2022-09-03T03:02:57;98698;;;18.70
12753;BMP180;6440;44.616;2.032;2022-09-03T03:05:27;98696;;;18.80
12753;BMP180;6440;44.616;2.032;2022-09-03T03:07:54;98695;;;18.80
12753;BMP180;6440;44.616;2.032;2022-09-03T03:10:23;98691;;;18.70
12753;BMP180;6440;44.616;2.032;2022-09-03T03:12:51;98694;;;18.70
12753;BMP180;6440;44.616;2.032;2022-09-03T03:15:20;98708;;;18.70
12753;BMP180;6440;44.616;2.032;2022-09-03T03:17:49;98692;;;18.70
12753;BMP180;6440;44.616;2.032;2022-09-03T03:20:18;98694;;;18.70
12753;BMP180;6440;44.616;2.032;2022-09-03T03:22:47;98688;;;18.60
12753;BMP180;6440;44.616;2.032;2022-09-03T03:25:16;98697;;;18.60
12753;BMP180;6440;44.616;2.032;2022-09-03T03:27:45;98701;;;18.50
12753;BMP180;6440;44.616;2.032;2022-09-03T03:30:14;98703;;;18.40
12753;BMP180;6440;44.616;2.032;2022-09-03T03:32:43;98708;;;18.40
12753;BMP180;6440;44.616;2.032;2022-09-03T03:35:12;98699;;;18.40
12753;BMP180;6440;44.616;2.032;2022-09-03T03:37:41;98704;;;18.50
12753;BMP180;6440;44.616;2.032;2022-09-03T03:40:11;98703;;;18.50
12753;BMP180;6440;44.616;2.032;2022-09-03T03:42:40;98702;;;18.50
12753;BMP180;6440;44.616;2.032;2022-09-03T03:45:09;98699;;;18.50
12753;BMP180;6440;44.616;2.032;2022-09-03T03:47:38;98697;;;18.50
12753;BMP180;6440;44.616;2.032;2022-09-03T03:50:08;98704;;;18.40
12753;BMP180;6440;44.616;2.032;2022-09-03T03:52:37;98698;;;18.40
12753;BMP180;6440;44.616;2.032;2022-09-03T03:55:07;98695;;;18.40
12753;BMP180;6440;44.616;2.032;2022-09-03T03:57:35;98693;;;18.40
12753;BMP180;6440;44.616;2.032;2022-09-03T04:00:06;98693;;;18.40
12753;BMP180;6440;44.616;2.032;2022-09-03T04:02:35;98701;;;18.30
12753;BMP180;6440;44.616;2.032;2022-09-03T04:05:05;98700;;;18.20
12753;BMP180;6440;44.616;2.032;2022-09-03T04:07:34;98705;;;18.20
12753;BMP180;6440;44.616;2.032;2022-09-03T04:10:04;98708;;;18.20
12753;BMP180;6440;44.616;2.032;2022-09-03T04:12:33;98704;;;18.20
12753;BMP180;6440;44.616;2.032;2022-09-03T04:15:02;98703;;;18.30
12753;BMP180;6440;44.616;2.032;2022-09-03T04:17:31;98702;;;18.40
12753;BMP180;6440;44.616;2.032;2022-09-03T04:20:00;98701;;;18.40
12753;BMP180;6440;44.616;2.032;2022-09-03T04:22:29;98700;;;18.40
12753;BMP180;6440;44.616;2.032;2022-09-03T04:24:58;98695;;;18.40
12753;BMP180;6440;44.616;2.032;2022-09-03T04:27:27;98700;;;18.40
12753;BMP180;6440;44.616;2.032;2022-09-03T04:29:56;98693;;;18.50
12753;BMP180;6440;44.616;2.032;2022-09-03T04:32:26;98708;;;18.40
12753;BMP180;6440;44.616;2.032;2022-09-03T04:34:59;98703;;;18.40
12753;BMP180;6440;44.616;2.032;2022-09-03T04:37:28;98703;;;18.30
12753;BMP180;6440;44.616;2.032;2022-09-03T04:39:57;98712;;;18.30
12753;BMP180;6440;44.616;2.032;2022-09-03T04:42:26;98701;;;18.30
12753;BMP180;6440;44.616;2.032;2022-09-03T04:44:54;98704;;;18.40
12753;BMP180;6440;44.616;2.032;2022-09-03T04:47:23;98701;;;18.40
12753;BMP180;6440;44.616;2.032;2022-09-03T04:49:52;98696;;;18.40
12753;BMP180;6440;44.616;2.032;2022-09-03T04:52:21;98699;;;18.40
12753;BMP180;6440;44.616;2.032;2022-09-03T04:54:49;98700;;;18.30
12753;BMP180;6440;44.616;2.032;2022-09-03T04:57:18;98704;;;18.30
12753;BMP180;6440;44.616;2.032;2022-09-03T04:59:47;98704;;;18.30
12753;BMP180;6440;44.616;2.032;2022-09-03T05:02:16;98697;;;18.40
12753;BMP180;6440;44.616;2.032;2022-09-03T05:04:44;98613;;;18.40
12753;BMP180;6440;44.616;2.032;2022-09-03T05:07:13;98705;;;18.30
12753;BMP180;6440;44.616;2.032;2022-09-03T05:09:42;98667;;;18.30
12753;BMP180;6440;44.616;2.032;2022-09-03T05:12:11;98706;;;18.20
12753;BMP180;6440;44.616;2.032;2022-09-03T05:14:40;98708;;;18.20
12753;BMP180;6440;44.616;2.032;2022-09-03T05:17:09;98704;;;18.30
12753;BMP180;6440;44.616;2.032;2022-09-03T05:19:38;98704;;;18.40
12753;BMP180;6440;44.616;2.032;2022-09-03T05:22:07;98703;;;18.30
12753;BMP180;6440;44.616;2.032;2022-09-03T05:24:36;98696;;;18.20
12753;BMP180;6440;44.616;2.032;2022-09-03T05:27:05;98708;;;18.10
12753;BMP180;6440;44.616;2.032;2022-09-03T05:29:34;98703;;;18.20
12753;BMP180;6440;44.616;2.032;2022-09-03T05:32:03;98699;;;18.10
12753;BMP180;6440;44.616;2.032;2022-09-03T05:34:32;98698;;;18.10
12753;BMP180;6440;44.616;2.032;2022-09-03T05:37:01;98699;;;18.10
12753;BMP180;6440;44.616;2.032;2022-09-03T05:39:30;98704;;;18.00
12753;BMP180;6440;44.616;2.032;2022-09-03T05:41:59;98706;;;18.00
12753;BMP180;6440;44.616;2.032;2022-09-03T05:44:28;98698;;;18.00
12753;BMP180;6440;44.616;2.032;2022-09-03T05:46:57;98697;;;18.00
12753;BMP180;6440;44.616;2.032;2022-09-03T05:49:26;98701;;;18.00
12753;BMP180;6440;44.616;2.032;2022-09-03T05:51:54;98700;;;18.10
12753;BMP180;6440;44.616;2.032;2022-09-03T05:54:23;98696;;;18.20
12753;BMP180;6440;44.616;2.032;2022-09-03T05:56:52;98693;;;18.30
12753;BMP180;6440;44.616;2.032;2022-09-03T05:59:21;98705;;;18.40
12753;BMP180;6440;44.616;2.032;2022-09-03T06:01:50;98708;;;18.30
12753;BMP180;6440;44.616;2.032;2022-09-03T06:04:19;98712;;;18.30
12753;BMP180;6440;44.616;2.032;2022-09-03T06:06:47;98706;;;18.40
12753;BMP180;6440;44.616;2.032;2022-09-03T06:09:16;98711;;;18.40
12753;BMP180;6440;44.616;2.032;2022-09-03T06:11:43;98716;;;18.40
12753;BMP180;6440;44.616;2.032;2022-09-03T06:14:12;98719;;;18.40
12753;BMP180;6440;44.616;2.032;2022-09-03T06:16:41;98718;;;18.60
12753;BMP180;6440;44.616;2.032;2022-09-03T06:19:08;98712;;;18.80
12753;BMP180;6440;44.616;2.032;2022-09-03T06:21:39;98719;;;19.20
12753;BMP180;6440;44.616;2.032;2022-09-03T06:24:08;98719;;;19.50
12753;BMP180;6440;44.616;2.032;2022-09-03T06:26:36;98724;;;19.90
12753;BMP180;6440;44.616;2.032;2022-09-03T06:29:05;98718;;;20.00
12753;BMP180;6440;44.616;2.032;2022-09-03T06:31:34;98722;;;20.00
12753;BMP180;6440;44.616;2.032;2022-09-03T06:34:02;98721;;;20.00
12753;BMP180;6440;44.616;2.032;2022-09-03T06:36:31;98722;;;20.10
12753;BMP180;6440;44.616;2.032;2022-09-03T06:39:00;98731;;;20.20
12753;BMP180;6440;44.616;2.032;2022-09-03T06:41:29;98726;;;20.30
12753;BMP180;6440;44.616;2.032;2022-09-03T06:43:57;98726;;;20.50
12753;BMP180;6440;44.616;2.032;2022-09-03T06:46:32;98706;;;20.60
12753;BMP180;6440;44.616;2.032;2022-09-03T06:48:59;98726;;;20.80
12753;BMP180;6440;44.616;2.032;2022-09-03T06:51:28;98730;;;21.00
12753;BMP180;6440;44.616;2.032;2022-09-03T06:54:01;98722;;;21.30
12753;BMP180;6440;44.616;2.032;2022-09-03T06:56:27;98733;;;21.60
12753;BMP180;6440;44.616;2.032;2022-09-03T06:58:56;98731;;;21.80
12753;BMP180;6440;44.616;2.032;2022-09-03T07:01:25;98733;;;22.10
12753;BMP180;6440;44.616;2.032;2022-09-03T07:03:54;98736;;;22.40
12753;BMP180;6440;44.616;2.032;2022-09-03T07:06:23;98735;;;22.40
12753;BMP180;6440;44.616;2.032;2022-09-03T07:08:51;98739;;;22.50
12753;BMP180;6440;44.616;2.032;2022-09-03T07:11:20;98740;;;22.40
12753;BMP180;6440;44.616;2.032;2022-09-03T07:13:48;98738;;;22.40
12753;BMP180;6440;44.616;2.032;2022-09-03T07:16:18;98733;;;22.60
12753;BMP180;6440;44.616;2.032;2022-09-03T07:18:46;98726;;;22.70
12753;BMP180;6440;44.616;2.032;2022-09-03T07:21:17;98725;;;22.90
12753;BMP180;6440;44.616;2.032;2022-09-03T07:23:44;98724;;;22.90
12753;BMP180;6440;44.616;2.032;2022-09-03T07:26:14;98727;;;23.10
12753;BMP180;6440;44.616;2.032;2022-09-03T07:28:41;98727;;;23.20
12753;BMP180;6440;44.616;2.032;2022-09-03T07:31:10;98721;;;23.10
12753;BMP180;6440;44.616;2.032;2022-09-03T07:33:37;98725;;;23.30
12753;BMP180;6440;44.616;2.032;2022-09-03T07:36:08;98735;;;23.30
12753;BMP180;6440;44.616;2.032;2022-09-03T07:38:33;98733;;;23.40
12753;BMP180;6440;44.616;2.032;2022-09-03T07:41:03;98736;;;23.80
12753;BMP180;6440;44.616;2.032;2022-09-03T07:43:35;98731;;;24.20
12753;BMP180;6440;44.616;2.032;2022-09-03T07:46:03;98738;;;24.30
12753;BMP180;6440;44.616;2.032;2022-09-03T07:48:31;98733;;;24.40
12753;BMP180;6440;44.616;2.032;2022-09-03T07:50:59;98735;;;24.80
12753;BMP180;6440;44.616;2.032;2022-09-03T07:53:28;98741;;;25.10
12753;BMP180;6440;44.616;2.032;2022-09-03T07:56:05;98741;;;26.20
12753;BMP180;6440;44.616;2.032;2022-09-03T07:58:33;98752;;;27.20
12753;BMP180;6440;44.616;2.032;2022-09-03T08:01:06;98740;;;28.40
12753;BMP180;6440;44.616;2.032;2022-09-03T08:03:34;98738;;;29.60
12753;BMP180;6440;44.616;2.032;2022-09-03T08:06:02;98737;;;30.40
12753;BMP180;6440;44.616;2.032;2022-09-03T08:08:29;98740;;;31.40
12753;BMP180;6440;44.616;2.032;2022-09-03T08:11:09;98758;;;31.60
12753;BMP180;6440;44.616;2.032;2022-09-03T08:13:38;98753;;;31.30
12753;BMP180;6440;44.616;2.032;2022-09-03T08:16:06;98751;;;31.80
12753;BMP180;6440;44.616;2.032;2022-09-03T08:18:34;98754;;;31.90
12753;BMP180;6440;44.616;2.032;2022-09-03T08:21:03;98753;;;32.60
12753;BMP180;6440;44.616;2.032;2022-09-03T08:23:30;98753;;;33.30
12753;BMP180;6440;44.616;2.032;2022-09-03T08:25:59;98757;;;33.90
12753;BMP180;6440;44.616;2.032;2022-09-03T08:28:26;98766;;;34.30
12753;BMP180;6440;44.616;2.032;2022-09-03T08:30:55;98761;;;34.50
12753;BMP180;6440;44.616;2.032;2022-09-03T08:33:24;98775;;;35.00
12753;BMP180;6440;44.616;2.032;2022-09-03T08:35:58;98772;;;34.30
12753;BMP180;6440;44.616;2.032;2022-09-03T08:38:26;98771;;;34.20
12753;BMP180;6440;44.616;2.032;2022-09-03T08:41:01;98774;;;34.40
12753;BMP180;6440;44.616;2.032;2022-09-03T08:43:22;98792;;;34.90
12753;BMP180;6440;44.616;2.032;2022-09-03T08:45:51;98794;;;33.90
12753;BMP180;6440;44.616;2.032;2022-09-03T08:48:19;98784;;;33.30
12753;BMP180;6440;44.616;2.032;2022-09-03T08:50:47;98778;;;33.70
12753;BMP180;6440;44.616;2.032;2022-09-03T08:56:24;98769;;;36.10
12753;BMP180;6440;44.616;2.032;2022-09-03T08:58:51;98801;;;35.30
12753;BMP180;6440;44.616;2.032;2022-09-03T09:01:50;98798;;;35.40
12753;BMP180;6440;44.616;2.032;2022-09-03T09:04:38;98798;;;36.40
12753;BMP180;6440;44.616;2.032;2022-09-03T09:07:20;98795;;;36.10
12753;BMP180;6440;44.616;2.032;2022-09-03T09:09:59;98799;;;36.50
12753;BMP180;6440;44.616;2.032;2022-09-03T09:12:54;98796;;;36.10
12753;BMP180;6440;44.616;2.032;2022-09-03T09:15:27;98805;;;35.20
12753;BMP180;6440;44.616;2.032;2022-09-03T09:20:55;98797;;;32.20
12753;BMP180;6440;44.616;2.032;2022-09-03T09:23:26;98802;;;31.10
12753;BMP180;6440;44.616;2.032;2022-09-03T09:25:51;98804;;;30.10
12753;BMP180;6440;44.616;2.032;2022-09-03T09:28:21;98796;;;29.60
12753;BMP180;6440;44.616;2.032;2022-09-03T09:30:48;98798;;;29.30
12753;BMP180;6440;44.616;2.032;2022-09-03T09:33:16;98798;;;29.00
12753;BMP180;6440;44.616;2.032;2022-09-03T09:35:43;98798;;;28.80
12753;BMP180;6440;44.616;2.032;2022-09-03T09:38:11;98801;;;28.90
12753;BMP180;6440;44.616;2.032;2022-09-03T09:40:40;98793;;;28.60
12753;BMP180;6440;44.616;2.032;2022-09-03T09:43:08;98795;;;28.60
12753;BMP180;6440;44.616;2.032;2022-09-03T09:45:36;98788;;;28.80
12753;BMP180;6440;44.616;2.032;2022-09-03T09:48:05;98782;;;29.00
12753;BMP180;6440;44.616;2.032;2022-09-03T09:50:32;98784;;;29.10
12753;BMP180;6440;44.616;2.032;2022-09-03T09:53:07;98783;;;29.50
12753;BMP180;6440;44.616;2.032;2022-09-03T09:55:32;98778;;;29.20
12753;BMP180;6440;44.616;2.032;2022-09-03T09:58:04;98781;;;29.60
12753;BMP180;6440;44.616;2.032;2022-09-03T10:00:32;98769;;;30.50
12753;BMP180;6440;44.616;2.032;2022-09-03T10:03:01;98772;;;30.90
12753;BMP180;6440;44.616;2.032;2022-09-03T10:05:30;98750;;;30.40
12753;BMP180;6440;44.616;2.032;2022-09-03T10:07:58;98782;;;30.30
12753;BMP180;6440;44.616;2.032;2022-09-03T10:10:25;98781;;;30.00
12753;BMP180;6440;44.616;2.032;2022-09-03T10:12:59;98774;;;29.80
12753;BMP180;6440;44.616;2.032;2022-09-03T10:15:34;98781;;;30.00
12753;BMP180;6440;44.616;2.032;2022-09-03T10:18:08;98772;;;30.20
12753;BMP180;6440;44.616;2.032;2022-09-03T10:20:44;98771;;;30.90
12753;BMP180;6440;44.616;2.032;2022-09-03T10:23:14;98765;;;30.10
12753;BMP180;6440;44.616;2.032;2022-09-03T10:28:14;98764;;;31.30
12753;BMP180;6440;44.616;2.032;2022-09-03T10:30:53;98765;;;31.10
12753;BMP180;6440;44.616;2.032;2022-09-03T10:33:25;98763;;;30.80
12753;BMP180;6440;44.616;2.032;2022-09-03T10:35:56;98761;;;30.00
12753;BMP180;6440;44.616;2.032;2022-09-03T10:38:26;98759;;;30.10
12753;BMP180;6440;44.616;2.032;2022-09-03T10:41:14;98752;;;30.70
12753;BMP180;6440;44.616;2.032;2022-09-03T10:47:01;98763;;;31.10
12753;BMP180;6440;44.616;2.032;2022-09-03T10:49:34;98753;;;31.40
12753;BMP180;6440;44.616;2.032;2022-09-03T10:52:08;98754;;;31.40
12753;BMP180;6440;44.616;2.032;2022-09-03T10:55:05;98750;;;31.50
12753;BMP180;6440;44.616;2.032;2022-09-03T10:57:45;98741;;;32.50
12753;BMP180;6440;44.616;2.032;2022-09-03T11:00:11;98737;;;32.80
12753;BMP180;6440;44.616;2.032;2022-09-03T11:02:48;98733;;;32.30
12753;BMP180;6440;44.616;2.032;2022-09-03T11:05:15;98733;;;33.10
12753;BMP180;6440;44.616;2.032;2022-09-03T11:07:44;98734;;;33.70
12753;BMP180;6440;44.616;2.032;2022-09-03T11:10:21;98731;;;33.30
12753;BMP180;6440;44.616;2.032;2022-09-03T11:12:48;98730;;;33.20
12753;BMP180;6440;44.616;2.032;2022-09-03T11:15:22;98732;;;32.90
12753;BMP180;6440;44.616;2.032;2022-09-03T11:17:47;98726;;;32.60
12753;BMP180;6440;44.616;2.032;2022-09-03T11:20:24;98725;;;32.90
12753;BMP180;6440;44.616;2.032;2022-09-03T11:22:53;98731;;;33.10
12753;BMP180;6440;44.616;2.032;2022-09-03T11:25:20;98719;;;33.30
12753;BMP180;6440;44.616;2.032;2022-09-03T11:28:15;98728;;;32.70
12753;BMP180;6440;44.616;2.032;2022-09-03T11:33:32;98724;;;33.80
12753;BMP180;6440;44.616;2.032;2022-09-03T11:36:00;98725;;;33.80
12753;BMP180;6440;44.616;2.032;2022-09-03T11:38:28;98720;;;32.90
12753;BMP180;6440;44.616;2.032;2022-09-03T11:41:14;98722;;;32.50
12753;BMP180;6440;44.616;2.032;2022-09-03T11:43:41;98724;;;32.00
12753;BMP180;6440;44.616;2.032;2022-09-03T11:46:12;98730;;;31.60
12753;BMP180;6440;44.616;2.032;2022-09-03T11:48:44;98718;;;31.30
12753;BMP180;6440;44.616;2.032;2022-09-03T11:51:28;98715;;;31.20
12753;BMP180;6440;44.616;2.032;2022-09-03T11:53:53;98721;;;30.90
12753;BMP180;6440;44.616;2.032;2022-09-03T11:56:21;98714;;;30.80
12753;BMP180;6440;44.616;2.032;2022-09-03T11:59:14;98710;;;30.40
12753;BMP180;6440;44.616;2.032;2022-09-03T12:01:36;98703;;;30.90
12753;BMP180;6440;44.616;2.032;2022-09-03T12:04:05;98705;;;31.20
12753;BMP180;6440;44.616;2.032;2022-09-03T12:06:56;98709;;;31.50
12753;BMP180;6440;44.616;2.032;2022-09-03T12:09:31;98712;;;31.50
12753;BMP180;6440;44.616;2.032;2022-09-03T12:13:11;98699;;;31.90
12753;BMP180;6440;44.616;2.032;2022-09-03T12:15:09;98696;;;32.20
12753;BMP180;6440;44.616;2.032;2022-09-03T12:17:58;98696;;;32.10
12753;BMP180;6440;44.616;2.032;2022-09-03T12:20:30;98698;;;31.90
12753;BMP180;6440;44.616;2.032;2022-09-03T12:22:59;98691;;;32.00
12753;BMP180;6440;44.616;2.032;2022-09-03T12:25:27;98691;;;32.00
12753;BMP180;6440;44.616;2.032;2022-09-03T12:27:55;98693;;;32.50
12753;BMP180;6440;44.616;2.032;2022-09-03T12:30:23;98689;;;32.50
12753;BMP180;6440;44.616;2.032;2022-09-03T12:32:51;98681;;;32.80
12753;BMP180;6440;44.616;2.032;2022-09-03T12:35:20;98685;;;32.50
12753;BMP180;6440;44.616;2.032;2022-09-03T12:37:50;98685;;;32.20
12753;BMP180;6440;44.616;2.032;2022-09-03T12:40:19;98682;;;32.60
12753;BMP180;6440;44.616;2.032;2022-09-03T12:42:46;98681;;;32.50
12753;BMP180;6440;44.616;2.032;2022-09-03T12:45:17;98676;;;32.40
12753;BMP180;6440;44.616;2.032;2022-09-03T12:47:42;98683;;;32.30
12753;BMP180;6440;44.616;2.032;2022-09-03T12:50:12;98680;;;32.30
12753;BMP180;6440;44.616;2.032;2022-09-03T12:52:48;98681;;;32.70
12753;BMP180;6440;44.616;2.032;2022-09-03T12:55:34;98682;;;32.70
12753;BMP180;6440;44.616;2.032;2022-09-03T12:58:13;98681;;;32.60
12753;BMP180;6440;44.616;2.032;2022-09-03T13:00:43;98666;;;32.40
12753;BMP180;6440;44.616;2.032;2022-09-03T13:03:12;98673;;;32.00
12753;BMP180;6440;44.616;2.032;2022-09-03T13:05:42;98675;;;32.10
12753;BMP180;6440;44.616;2.032;2022-09-03T13:08:09;98670;;;31.50
12753;BMP180;6440;44.616;2.032;2022-09-03T13:10:37;98669;;;31.10
12753;BMP180;6440;44.616;2.032;2022-09-03T13:13:25;98677;;;30.90
12753;BMP180;6440;44.616;2.032;2022-09-03T13:16:13;98666;;;30.80
12753;BMP180;6440;44.616;2.032;2022-09-03T13:18:45;98659;;;31.10
12753;BMP180;6440;44.616;2.032;2022-09-03T13:21:20;98660;;;31.20
12753;BMP180;6440;44.616;2.032;2022-09-03T13:24:25;98664;;;31.00
12753;BMP180;6440;44.616;2.032;2022-09-03T13:27:20;98657;;;30.80
12753;BMP180;6440;44.616;2.032;2022-09-03T13:29:59;98664;;;30.70
12753;BMP180;6440;44.616;2.032;2022-09-03T13:32:31;98654;;;31.10
12753;BMP180;6440;44.616;2.032;2022-09-03T13:37:44;98653;;;31.70
12753;BMP180;6440;44.616;2.032;2022-09-03T13:40:14;98650;;;31.90
12753;BMP180;6440;44.616;2.032;2022-09-03T13:42:41;98644;;;31.80
12753;BMP180;6440;44.616;2.032;2022-09-03T13:45:35;98649;;;31.70
12753;BMP180;6440;44.616;2.032;2022-09-03T13:48:06;98648;;;31.40
12753;BMP180;6440;44.616;2.032;2022-09-03T13:50:58;98641;;;31.50
12753;BMP180;6440;44.616;2.032;2022-09-03T13:53:50;98635;;;31.60
12753;BMP180;6440;44.616;2.032;2022-09-03T13:56:37;98634;;;31.50
12753;BMP180;6440;44.616;2.032;2022-09-03T13:59:11;98631;;;31.30
12753;BMP180;6440;44.616;2.032;2022-09-03T14:02:41;98622;;;31.00
12753;BMP180;6440;44.616;2.032;2022-09-03T14:04:57;98619;;;31.00
12753;BMP180;6440;44.616;2.032;2022-09-03T14:11:22;98614;;;31.00
12753;BMP180;6440;44.616;2.032;2022-09-03T14:15:48;98615;;;31.20
12753;BMP180;6440;44.616;2.032;2022-09-03T14:18:32;98611;;;31.30
12753;BMP180;6440;44.616;2.032;2022-09-03T14:20:58;98609;;;31.10
12753;BMP180;6440;44.616;2.032;2022-09-03T14:23:51;98600;;;31.40
12753;BMP180;6440;44.616;2.032;2022-09-03T14:26:17;98600;;;31.40
12753;BMP180;6440;44.616;2.032;2022-09-03T14:28:45;98605;;;31.30
12753;BMP180;6440;44.616;2.032;2022-09-03T14:31:20;98605;;;31.10
12753;BMP180;6440;44.616;2.032;2022-09-03T14:36:43;98602;;;30.90
12753;BMP180;6440;44.616;2.032;2022-09-03T14:39:15;98601;;;31.30
12753;BMP180;6440;44.616;2.032;2022-09-03T14:41:56;98597;;;31.40
12753;BMP180;6440;44.616;2.032;2022-09-03T14:44:47;98600;;;31.50
12753;BMP180;6440;44.616;2.032;2022-09-03T14:53:26;98595;;;31.10
12753;BMP180;6440;44.616;2.032;2022-09-03T14:56:03;98598;;;30.80
12753;BMP180;6440;44.616;2.032;2022-09-03T15:01:37;98603;;;30.70
12753;BMP180;6440;44.616;2.032;2022-09-03T15:07:07;98593;;;29.90
12753;BMP180;6440;44.616;2.032;2022-09-03T15:09:57;98592;;;30.10
12753;BMP180;6440;44.616;2.032;2022-09-03T15:12:29;98589;;;30.20
12753;BMP180;6440;44.616;2.032;2022-09-03T15:14:53;98591;;;30.30
12753;BMP180;6440;44.616;2.032;2022-09-03T15:18:12;98590;;;30.40
12753;BMP180;6440;44.616;2.032;2022-09-03T15:20:39;98588;;;30.40
12753;BMP180;6440;44.616;2.032;2022-09-03T15:23:16;98595;;;30.70
12753;BMP180;6440;44.616;2.032;2022-09-03T15:29:02;98606;;;30.50
12753;BMP180;6440;44.616;2.032;2022-09-03T15:31:34;98599;;;30.00
12753;BMP180;6440;44.616;2.032;2022-09-03T15:34:03;98588;;;29.70
12753;BMP180;6440;44.616;2.032;2022-09-03T15:36:35;98594;;;29.70
12753;BMP180;6440;44.616;2.032;2022-09-03T15:39:06;98591;;;29.70
12753;BMP180;6440;44.616;2.032;2022-09-03T15:41:56;98588;;;29.80
12753;BMP180;6440;44.616;2.032;2022-09-03T15:44:24;98586;;;29.80
12753;BMP180;6440;44.616;2.032;2022-09-03T15:47:03;98582;;;29.80
12753;BMP180;6440;44.616;2.032;2022-09-03T15:55:29;98586;;;29.50
12753;BMP180;6440;44.616;2.032;2022-09-03T15:57:59;98592;;;29.40
12753;BMP180;6440;44.616;2.032;2022-09-03T16:00:26;98596;;;29.40
12753;BMP180;6440;44.616;2.032;2022-09-03T16:03:00;98594;;;29.30
12753;BMP180;6440;44.616;2.032;2022-09-03T16:05:40;98596;;;29.30
12753;BMP180;6440;44.616;2.032;2022-09-03T16:08:16;98590;;;29.20
12753;BMP180;6440;44.616;2.032;2022-09-03T16:14:16;98584;;;29.20
12753;BMP180;6440;44.616;2.032;2022-09-03T16:16:30;98590;;;29.20
12753;BMP180;6440;44.616;2.032;2022-09-03T16:19:00;98592;;;29.40
12753;BMP180;6440;44.616;2.032;2022-09-03T16:21:40;98583;;;29.30
12753;BMP180;6440;44.616;2.032;2022-09-03T16:24:22;98578;;;29.20
12753;BMP180;6440;44.616;2.032;2022-09-03T16:26:59;98588;;;29.10
12753;BMP180;6440;44.616;2.032;2022-09-03T16:29:27;98578;;;29.00
12753;BMP180;6440;44.616;2.032;2022-09-03T16:32:30;98573;;;28.90